sensor_id;sensor_type;location;lat;lon;timestamp;P1;durP1;ratioP1;P2;durP2;ratioP2
43809;SDS011;29440;48.208;11.162;2024-02-28T00:00:29;32.30;;;15.18;;
43809;SDS011;29440;48.208;11.162;2024-02-28T00:02:54;26.90;;;14.38;;
43809;SDS011;29440;48.208;11.162;2024-02-28T00:05:20;29.05;;;14.65;;
43809;SDS011;29440;48.208;11.162;2024-02-28T00:07:45;32.65;;;15.57;;
43809;SDS011;29440;48.208;11.162;2024-02-28T00:10:12;25.23;;;14.43;;
43809;SDS011;29440;48.208;11.162;2024-02-28T00:12:38;25.83;;;14.32;;
43809;SDS011;29440;48.208;11.162;2024-02-28T00:15:04;25.40;;;13.48;;
43809;SDS011;29440;48.208;11.162;2024-02-28T00:17:30;27.80;;;15.02;;
43809;SDS011;29440;48.208;11.162;2024-02-28T00:19:56;27.35;;;14.30;;
43809;SDS011;29440;48.208;11.162;2024-02-28T00:22:21;24.92;;;15.30;;
43809;SDS011;29440;48.208;11.162;2024-02-28T00:24:47;25.20;;;13.75;;
43809;SDS011;29440;48.208;11.162;2024-02-28T00:27:13;27.42;;;14.80;;
43809;SDS011;29440;48.208;11.162;2024-02-28T00:29:38;24.90;;;14.18;;
43809;SDS011;29440;48.208;11.162;2024-02-28T00:32:04;30.85;;;15.85;;
43809;SDS011;29440;48.208;11.162;2024-02-28T00:34:30;26.73;;;14.63;;
43809;SDS011;29440;48.208;11.162;2024-02-28T00:36:55;28.00;;;15.52;;
43809;SDS011;29440;48.208;11.162;2024-02-28T00:39:21;28.88;;;16.00;;
43809;SDS011;29440;48.208;11.162;2024-02-28T00:41:47;30.30;;;15.90;;
43809;SDS011;29440;48.208;11.162;2024-02-28T00:44:12;28.48;;;15.60;;
43809;SDS011;29440;48.208;11.162;2024-02-28T00:46:39;30.63;;;14.77;;
43809;SDS011;29440;48.208;11.162;2024-02-28T00:49:04;28.48;;;14.70;;
43809;SDS011;29440;48.208;11.162;2024-02-28T00:51:30;31.83;;;15.88;;
43809;SDS011;29440;48.208;11.162;2024-02-28T00:53:55;31.08;;;15.82;;
43809;SDS011;29440;48.208;11.162;2024-02-28T00:56:21;33.92;;;16.80;;
43809;SDS011;29440;48.208;11.162;2024-02-28T00:58:47;30.13;;;15.75;;
43809;SDS011;29440;48.208;11.162;2024-02-28T01:01:12;35.88;;;16.50;;
43809;SDS011;29440;48.208;11.162;2024-02-28T01:03:38;33.75;;;16.02;;
43809;SDS011;29440;48.208;11.162;2024-02-28T01:06:04;32.47;;;16.38;;
43809;SDS011;29440;48.208;11.162;2024-02-28T01:08:29;31.42;;;15.07;;
43809;SDS011;29440;48.208;11.162;2024-02-28T01:10:55;32.75;;;15.98;;
43809;SDS011;29440;48.208;11.162;2024-02-28T01:13:21;35.13;;;16.10;;
43809;SDS011;29440;48.208;11.162;2024-02-28T01:15:46;33.28;;;16.70;;
43809;SDS011;29440;48.208;11.162;2024-02-28T01:18:12;31.52;;;16.30;;
43809;SDS011;29440;48.208;11.162;2024-02-28T01:20:37;25.50;;;13.57;;
43809;SDS011;29440;48.208;11.162;2024-02-28T01:23:03;31.73;;;16.30;;
43809;SDS011;29440;48.208;11.162;2024-02-28T01:25:29;29.83;;;15.80;;
43809;SDS011;29440;48.208;11.162;2024-02-28T01:27:55;29.45;;;16.02;;
43809;SDS011;29440;48.208;11.162;2024-02-28T01:30:23;30.10;;;15.52;;
43809;SDS011;29440;48.208;11.162;2024-02-28T01:32:48;28.52;;;14.93;;
43809;SDS011;29440;48.208;11.162;2024-02-28T01:35:14;30.02;;;15.43;;
43809;SDS011;29440;48.208;11.162;2024-02-28T01:37:39;29.73;;;15.77;;
43809;SDS011;29440;48.208;11.162;2024-02-28T01:40:05;32.65;;;16.00;;
43809;SDS011;29440;48.208;11.162;2024-02-28T01:42:31;31.92;;;16.10;;
43809;SDS011;29440;48.208;11.162;2024-02-28T01:44:57;32.85;;;16.88;;
43809;SDS011;29440;48.208;11.162;2024-02-28T01:47:23;33.55;;;17.92;;
43809;SDS011;29440;48.208;11.162;2024-02-28T01:49:49;30.33;;;16.40;;
43809;SDS011;29440;48.208;11.162;2024-02-28T01:52:15;30.08;;;15.18;;
43809;SDS011;29440;48.208;11.162;2024-02-28T01:54:42;31.63;;;17.13;;
43809;SDS011;29440;48.208;11.162;2024-02-28T01:57:08;30.42;;;16.63;;
43809;SDS011;29440;48.208;11.162;2024-02-28T01:59:34;35.85;;;16.45;;
43809;SDS011;29440;48.208;11.162;2024-02-28T02:02:00;33.00;;;16.77;;
43809;SDS011;29440;48.208;11.162;2024-02-28T02:04:26;29.15;;;15.38;;
43809;SDS011;29440;48.208;11.162;2024-02-28T02:06:51;29.10;;;15.68;;
43809;SDS011;29440;48.208;11.162;2024-02-28T02:09:23;30.20;;;16.02;;
43809;SDS011;29440;48.208;11.162;2024-02-28T02:11:48;34.80;;;17.10;;
43809;SDS011;29440;48.208;11.162;2024-02-28T02:14:14;33.30;;;16.30;;
43809;SDS011;29440;48.208;11.162;2024-02-28T02:16:40;30.92;;;16.02;;
43809;SDS011;29440;48.208;11.162;2024-02-28T02:19:05;29.88;;;16.30;;
43809;SDS011;29440;48.208;11.162;2024-02-28T02:21:45;29.00;;;16.15;;
43809;SDS011;29440;48.208;11.162;2024-02-28T02:24:15;34.67;;;16.48;;
43809;SDS011;29440;48.208;11.162;2024-02-28T02:26:41;30.33;;;16.38;;
43809;SDS011;29440;48.208;11.162;2024-02-28T02:29:09;32.97;;;16.25;;
43809;SDS011;29440;48.208;11.162;2024-02-28T02:31:35;31.02;;;16.25;;
43809;SDS011;29440;48.208;11.162;2024-02-28T02:34:00;32.65;;;16.48;;
43809;SDS011;29440;48.208;11.162;2024-02-28T02:36:26;30.92;;;16.83;;
43809;SDS011;29440;48.208;11.162;2024-02-28T02:38:52;31.15;;;16.10;;
43809;SDS011;29440;48.208;11.162;2024-02-28T02:41:17;35.15;;;16.85;;
43809;SDS011;29440;48.208;11.162;2024-02-28T02:43:43;31.92;;;16.15;;
43809;SDS011;29440;48.208;11.162;2024-02-28T02:46:09;30.17;;;16.02;;
43809;SDS011;29440;48.208;11.162;2024-02-28T02:48:34;31.60;;;15.48;;
43809;SDS011;29440;48.208;11.162;2024-02-28T02:51:00;35.58;;;17.52;;
43809;SDS011;29440;48.208;11.162;2024-02-28T02:53:25;32.17;;;17.25;;
43809;SDS011;29440;48.208;11.162;2024-02-28T02:55:51;34.80;;;17.77;;
43809;SDS011;29440;48.208;11.162;2024-02-28T02:58:16;36.45;;;17.15;;
43809;SDS011;29440;48.208;11.162;2024-02-28T03:00:42;37.90;;;17.95;;
43809;SDS011;29440;48.208;11.162;2024-02-28T03:03:07;33.08;;;17.08;;
43809;SDS011;29440;48.208;11.162;2024-02-28T03:05:33;36.45;;;17.23;;
43809;SDS011;29440;48.208;11.162;2024-02-28T03:07:58;33.83;;;17.15;;
43809;SDS011;29440;48.208;11.162;2024-02-28T03:10:24;37.35;;;18.48;;
43809;SDS011;29440;48.208;11.162;2024-02-28T03:12:49;37.60;;;17.23;;
43809;SDS011;29440;48.208;11.162;2024-02-28T03:15:15;38.13;;;17.48;;
43809;SDS011;29440;48.208;11.162;2024-02-28T03:17:41;39.13;;;17.95;;
43809;SDS011;29440;48.208;11.162;2024-02-28T03:20:07;38.00;;;17.63;;
43809;SDS011;29440;48.208;11.162;2024-02-28T03:22:33;29.88;;;16.73;;
43809;SDS011;29440;48.208;11.162;2024-02-28T03:24:58;37.50;;;17.77;;
43809;SDS011;29440;48.208;11.162;2024-02-28T03:27:24;36.83;;;17.05;;
43809;SDS011;29440;48.208;11.162;2024-02-28T03:29:49;36.13;;;17.70;;
43809;SDS011;29440;48.208;11.162;2024-02-28T03:32:15;40.42;;;18.17;;
43809;SDS011;29440;48.208;11.162;2024-02-28T03:34:40;39.78;;;18.20;;
43809;SDS011;29440;48.208;11.162;2024-02-28T03:37:06;40.78;;;18.00;;
43809;SDS011;29440;48.208;11.162;2024-02-28T03:39:31;36.53;;;18.38;;
43809;SDS011;29440;48.208;11.162;2024-02-28T03:41:57;39.00;;;19.55;;
43809;SDS011;29440;48.208;11.162;2024-02-28T03:44:22;41.72;;;18.90;;
43809;SDS011;29440;48.208;11.162;2024-02-28T03:46:50;42.45;;;18.85;;
43809;SDS011;29440;48.208;11.162;2024-02-28T03:49:16;40.03;;;20.02;;
43809;SDS011;29440;48.208;11.162;2024-02-28T03:51:41;40.63;;;20.38;;
43809;SDS011;29440;48.208;11.162;2024-02-28T03:54:07;40.33;;;19.25;;
43809;SDS011;29440;48.208;11.162;2024-02-28T03:56:33;39.53;;;19.20;;
43809;SDS011;29440;48.208;11.162;2024-02-28T03:59:00;37.05;;;17.95;;
43809;SDS011;29440;48.208;11.162;2024-02-28T04:01:26;36.00;;;17.92;;
43809;SDS011;29440;48.208;11.162;2024-02-28T04:03:51;40.30;;;19.33;;
43809;SDS011;29440;48.208;11.162;2024-02-28T04:06:17;37.75;;;19.58;;
43809;SDS011;29440;48.208;11.162;2024-02-28T04:08:42;39.22;;;19.27;;
43809;SDS011;29440;48.208;11.162;2024-02-28T04:11:08;37.25;;;17.85;;
43809;SDS011;29440;48.208;11.162;2024-02-28T04:13:35;38.13;;;19.05;;
43809;SDS011;29440;48.208;11.162;2024-02-28T04:16:01;43.63;;;20.45;;
43809;SDS011;29440;48.208;11.162;2024-02-28T04:18:28;36.72;;;19.48;;
43809;SDS011;29440;48.208;11.162;2024-02-28T04:20:54;41.47;;;18.63;;
43809;SDS011;29440;48.208;11.162;2024-02-28T04:23:20;42.45;;;19.20;;
43809;SDS011;29440;48.208;11.162;2024-02-28T04:25:45;40.65;;;19.83;;
43809;SDS011;29440;48.208;11.162;2024-02-28T04:28:11;36.65;;;18.27;;
43809;SDS011;29440;48.208;11.162;2024-02-28T04:30:36;40.15;;;19.10;;
43809;SDS011;29440;48.208;11.162;2024-02-28T04:33:02;41.58;;;18.50;;
43809;SDS011;29440;48.208;11.162;2024-02-28T04:35:28;41.60;;;20.73;;
43809;SDS011;29440;48.208;11.162;2024-02-28T04:37:53;39.17;;;18.58;;
43809;SDS011;29440;48.208;11.162;2024-02-28T04:40:19;40.80;;;21.33;;
43809;SDS011;29440;48.208;11.162;2024-02-28T04:42:44;42.13;;;20.65;;
43809;SDS011;29440;48.208;11.162;2024-02-28T04:45:10;40.60;;;19.33;;
43809;SDS011;29440;48.208;11.162;2024-02-28T04:47:36;40.47;;;20.63;;
43809;SDS011;29440;48.208;11.162;2024-02-28T04:50:02;40.47;;;20.02;;
43809;SDS011;29440;48.208;11.162;2024-02-28T04:52:30;39.55;;;19.08;;
43809;SDS011;29440;48.208;11.162;2024-02-28T04:54:55;39.42;;;18.88;;
43809;SDS011;29440;48.208;11.162;2024-02-28T04:57:21;43.75;;;20.48;;
43809;SDS011;29440;48.208;11.162;2024-02-28T04:59:47;38.85;;;18.63;;
43809;SDS011;29440;48.208;11.162;2024-02-28T05:02:12;44.63;;;19.23;;
43809;SDS011;29440;48.208;11.162;2024-02-28T05:04:38;38.58;;;19.90;;
43809;SDS011;29440;48.208;11.162;2024-02-28T05:07:04;39.67;;;19.25;;
43809;SDS011;29440;48.208;11.162;2024-02-28T05:09:32;37.20;;;18.50;;
43809;SDS011;29440;48.208;11.162;2024-02-28T05:11:57;39.90;;;18.95;;
43809;SDS011;29440;48.208;11.162;2024-02-28T05:14:23;39.42;;;19.42;;
43809;SDS011;29440;48.208;11.162;2024-02-28T05:16:49;41.58;;;19.42;;
43809;SDS011;29440;48.208;11.162;2024-02-28T05:19:15;39.35;;;19.20;;
43809;SDS011;29440;48.208;11.162;2024-02-28T05:21:44;39.83;;;19.95;;
43809;SDS011;29440;48.208;11.162;2024-02-28T05:24:10;43.33;;;20.27;;
43809;SDS011;29440;48.208;11.162;2024-02-28T05:26:35;44.63;;;21.58;;
43809;SDS011;29440;48.208;11.162;2024-02-28T05:29:02;35.63;;;19.15;;
43809;SDS011;29440;48.208;11.162;2024-02-28T05:31:28;41.30;;;19.95;;
43809;SDS011;29440;48.208;11.162;2024-02-28T05:33:54;42.63;;;19.80;;
43809;SDS011;29440;48.208;11.162;2024-02-28T05:36:22;40.00;;;19.58;;
43809;SDS011;29440;48.208;11.162;2024-02-28T05:38:48;37.95;;;18.85;;
43809;SDS011;29440;48.208;11.162;2024-02-28T05:41:13;38.92;;;19.83;;
43809;SDS011;29440;48.208;11.162;2024-02-28T05:43:41;37.80;;;19.17;;
43809;SDS011;29440;48.208;11.162;2024-02-28T05:46:06;37.85;;;19.50;;
43809;SDS011;29440;48.208;11.162;2024-02-28T05:48:32;37.78;;;18.85;;
43809;SDS011;29440;48.208;11.162;2024-02-28T05:50:57;39.03;;;20.27;;
43809;SDS011;29440;48.208;11.162;2024-02-28T05:53:25;43.13;;;19.73;;
43809;SDS011;29440;48.208;11.162;2024-02-28T05:55:52;36.30;;;18.23;;
43809;SDS011;29440;48.208;11.162;2024-02-28T05:58:21;33.17;;;17.63;;
43809;SDS011;29440;48.208;11.162;2024-02-28T06:00:47;35.33;;;16.88;;
43809;SDS011;29440;48.208;11.162;2024-02-28T06:03:13;36.55;;;18.33;;
43809;SDS011;29440;48.208;11.162;2024-02-28T06:05:39;38.50;;;19.15;;
43809;SDS011;29440;48.208;11.162;2024-02-28T06:08:04;42.30;;;19.38;;
43809;SDS011;29440;48.208;11.162;2024-02-28T06:10:30;39.28;;;18.38;;
43809;SDS011;29440;48.208;11.162;2024-02-28T06:12:56;39.72;;;19.35;;
43809;SDS011;29440;48.208;11.162;2024-02-28T06:15:21;42.45;;;20.20;;
43809;SDS011;29440;48.208;11.162;2024-02-28T06:17:47;42.97;;;20.20;;
43809;SDS011;29440;48.208;11.162;2024-02-28T06:20:12;41.20;;;21.23;;
43809;SDS011;29440;48.208;11.162;2024-02-28T06:22:38;40.38;;;19.67;;
43809;SDS011;29440;48.208;11.162;2024-02-28T06:25:03;42.47;;;19.65;;
43809;SDS011;29440;48.208;11.162;2024-02-28T06:27:32;39.92;;;19.90;;
43809;SDS011;29440;48.208;11.162;2024-02-28T06:30:01;46.70;;;20.52;;
43809;SDS011;29440;48.208;11.162;2024-02-28T06:32:28;49.05;;;21.15;;
43809;SDS011;29440;48.208;11.162;2024-02-28T06:34:54;42.00;;;20.80;;
43809;SDS011;29440;48.208;11.162;2024-02-28T06:37:19;46.05;;;20.17;;
43809;SDS011;29440;48.208;11.162;2024-02-28T06:39:45;43.85;;;19.80;;
43809;SDS011;29440;48.208;11.162;2024-02-28T06:42:10;45.13;;;21.20;;
43809;SDS011;29440;48.208;11.162;2024-02-28T06:44:36;42.00;;;20.35;;
43809;SDS011;29440;48.208;11.162;2024-02-28T06:47:01;46.92;;;21.40;;
43809;SDS011;29440;48.208;11.162;2024-02-28T06:49:27;43.53;;;20.77;;
43809;SDS011;29440;48.208;11.162;2024-02-28T06:51:53;46.05;;;21.25;;
43809;SDS011;29440;48.208;11.162;2024-02-28T06:54:20;51.97;;;22.08;;
43809;SDS011;29440;48.208;11.162;2024-02-28T06:56:45;51.03;;;21.95;;
43809;SDS011;29440;48.208;11.162;2024-02-28T06:59:11;45.17;;;20.73;;
43809;SDS011;29440;48.208;11.162;2024-02-28T07:01:37;47.42;;;21.88;;
43809;SDS011;29440;48.208;11.162;2024-02-28T07:04:02;47.05;;;21.95;;
43809;SDS011;29440;48.208;11.162;2024-02-28T07:06:28;48.78;;;21.85;;
43809;SDS011;29440;48.208;11.162;2024-02-28T07:08:54;61.75;;;23.92;;
43809;SDS011;29440;48.208;11.162;2024-02-28T07:11:19;63.15;;;27.00;;
43809;SDS011;29440;48.208;11.162;2024-02-28T07:13:46;64.40;;;25.63;;
43809;SDS011;29440;48.208;11.162;2024-02-28T07:16:12;70.22;;;28.63;;
43809;SDS011;29440;48.208;11.162;2024-02-28T07:18:37;71.93;;;29.48;;
43809;SDS011;29440;48.208;11.162;2024-02-28T07:21:03;69.53;;;29.48;;
43809;SDS011;29440;48.208;11.162;2024-02-28T07:23:31;65.25;;;28.98;;
43809;SDS011;29440;48.208;11.162;2024-02-28T07:25:58;61.22;;;24.60;;
43809;SDS011;29440;48.208;11.162;2024-02-28T07:28:24;67.93;;;27.20;;
43809;SDS011;29440;48.208;11.162;2024-02-28T07:30:49;67.50;;;24.95;;
43809;SDS011;29440;48.208;11.162;2024-02-28T07:33:15;69.93;;;26.13;;
43809;SDS011;29440;48.208;11.162;2024-02-28T07:35:46;65.43;;;26.38;;
43809;SDS011;29440;48.208;11.162;2024-02-28T07:38:13;70.47;;;25.75;;
43809;SDS011;29440;48.208;11.162;2024-02-28T07:40:38;66.00;;;26.30;;
43809;SDS011;29440;48.208;11.162;2024-02-28T07:43:04;64.65;;;25.25;;
43809;SDS011;29440;48.208;11.162;2024-02-28T07:45:29;66.90;;;25.23;;
43809;SDS011;29440;48.208;11.162;2024-02-28T07:47:55;66.15;;;26.42;;
43809;SDS011;29440;48.208;11.162;2024-02-28T07:50:21;72.68;;;26.00;;
43809;SDS011;29440;48.208;11.162;2024-02-28T07:52:46;69.13;;;25.50;;
43809;SDS011;29440;48.208;11.162;2024-02-28T07:55:12;67.68;;;25.88;;
43809;SDS011;29440;48.208;11.162;2024-02-28T07:57:38;66.30;;;26.05;;
43809;SDS011;29440;48.208;11.162;2024-02-28T08:00:03;72.43;;;26.40;;
43809;SDS011;29440;48.208;11.162;2024-02-28T08:02:29;68.65;;;25.92;;
43809;SDS011;29440;48.208;11.162;2024-02-28T08:04:56;61.25;;;25.08;;
43809;SDS011;29440;48.208;11.162;2024-02-28T08:07:21;68.70;;;26.85;;
43809;SDS011;29440;48.208;11.162;2024-02-28T08:09:47;61.47;;;25.33;;
43809;SDS011;29440;48.208;11.162;2024-02-28T08:12:12;67.15;;;25.55;;
43809;SDS011;29440;48.208;11.162;2024-02-28T08:14:38;67.25;;;26.00;;
43809;SDS011;29440;48.208;11.162;2024-02-28T08:17:03;62.33;;;24.50;;
43809;SDS011;29440;48.208;11.162;2024-02-28T08:19:29;68.97;;;25.55;;
43809;SDS011;29440;48.208;11.162;2024-02-28T08:21:55;68.97;;;26.10;;
43809;SDS011;29440;48.208;11.162;2024-02-28T08:24:20;74.75;;;25.27;;
43809;SDS011;29440;48.208;11.162;2024-02-28T08:26:46;74.25;;;26.88;;
43809;SDS011;29440;48.208;11.162;2024-02-28T08:29:11;69.05;;;25.50;;
43809;SDS011;29440;48.208;11.162;2024-02-28T08:31:41;68.95;;;28.23;;
43809;SDS011;29440;48.208;11.162;2024-02-28T08:34:08;68.93;;;25.60;;
43809;SDS011;29440;48.208;11.162;2024-02-28T08:36:33;75.13;;;25.23;;
43809;SDS011;29440;48.208;11.162;2024-02-28T08:38:59;73.20;;;28.08;;
43809;SDS011;29440;48.208;11.162;2024-02-28T08:41:24;74.22;;;26.25;;
43809;SDS011;29440;48.208;11.162;2024-02-28T08:43:50;65.13;;;24.15;;
43809;SDS011;29440;48.208;11.162;2024-02-28T08:46:15;66.10;;;24.73;;
43809;SDS011;29440;48.208;11.162;2024-02-28T08:48:41;68.82;;;24.77;;
43809;SDS011;29440;48.208;11.162;2024-02-28T08:51:07;71.68;;;25.80;;
43809;SDS011;29440;48.208;11.162;2024-02-28T08:53:33;65.80;;;25.48;;
43809;SDS011;29440;48.208;11.162;2024-02-28T08:55:58;64.13;;;23.30;;
43809;SDS011;29440;48.208;11.162;2024-02-28T08:58:24;64.22;;;25.30;;
43809;SDS011;29440;48.208;11.162;2024-02-28T09:00:50;64.07;;;25.08;;
43809;SDS011;29440;48.208;11.162;2024-02-28T09:03:16;62.92;;;24.00;;
43809;SDS011;29440;48.208;11.162;2024-02-28T09:05:41;63.03;;;23.35;;
43809;SDS011;29440;48.208;11.162;2024-02-28T09:08:07;58.28;;;22.88;;
43809;SDS011;29440;48.208;11.162;2024-02-28T09:10:33;63.33;;;24.20;;
43809;SDS011;29440;48.208;11.162;2024-02-28T09:12:59;60.65;;;23.20;;
43809;SDS011;29440;48.208;11.162;2024-02-28T09:15:25;67.10;;;24.17;;
43809;SDS011;29440;48.208;11.162;2024-02-28T09:17:50;69.60;;;25.73;;
43809;SDS011;29440;48.208;11.162;2024-02-28T09:20:16;64.68;;;25.83;;
43809;SDS011;29440;48.208;11.162;2024-02-28T09:22:42;65.72;;;23.98;;
43809;SDS011;29440;48.208;11.162;2024-02-28T09:25:08;69.95;;;25.90;;
43809;SDS011;29440;48.208;11.162;2024-02-28T09:27:34;73.15;;;25.67;;
43809;SDS011;29440;48.208;11.162;2024-02-28T09:30:00;69.05;;;26.08;;
43809;SDS011;29440;48.208;11.162;2024-02-28T09:32:27;75.60;;;27.63;;
43809;SDS011;29440;48.208;11.162;2024-02-28T09:34:53;70.63;;;26.38;;
43809;SDS011;29440;48.208;11.162;2024-02-28T09:37:18;73.22;;;26.17;;
43809;SDS011;29440;48.208;11.162;2024-02-28T09:39:46;69.00;;;24.15;;
43809;SDS011;29440;48.208;11.162;2024-02-28T09:42:11;71.65;;;25.42;;
43809;SDS011;29440;48.208;11.162;2024-02-28T09:44:39;68.80;;;25.92;;
43809;SDS011;29440;48.208;11.162;2024-02-28T09:47:07;57.33;;;24.05;;
43809;SDS011;29440;48.208;11.162;2024-02-28T09:49:33;66.68;;;26.02;;
43809;SDS011;29440;48.208;11.162;2024-02-28T09:52:01;65.93;;;25.42;;
43809;SDS011;29440;48.208;11.162;2024-02-28T09:54:28;65.40;;;26.40;;
43809;SDS011;29440;48.208;11.162;2024-02-28T09:56:54;67.30;;;26.77;;
43809;SDS011;29440;48.208;11.162;2024-02-28T09:59:20;61.30;;;24.75;;
43809;SDS011;29440;48.208;11.162;2024-02-28T10:01:51;66.00;;;25.50;;
43809;SDS011;29440;48.208;11.162;2024-02-28T10:04:21;63.40;;;23.73;;
43809;SDS011;29440;48.208;11.162;2024-02-28T10:06:51;65.43;;;24.35;;
43809;SDS011;29440;48.208;11.162;2024-02-28T10:09:16;61.85;;;24.63;;
43809;SDS011;29440;48.208;11.162;2024-02-28T10:11:42;65.45;;;24.55;;
43809;SDS011;29440;48.208;11.162;2024-02-28T10:14:11;61.08;;;25.02;;
43809;SDS011;29440;48.208;11.162;2024-02-28T10:16:42;60.80;;;24.33;;
43809;SDS011;29440;48.208;11.162;2024-02-28T10:19:07;62.58;;;23.80;;
43809;SDS011;29440;48.208;11.162;2024-02-28T10:21:33;65.78;;;24.73;;
43809;SDS011;29440;48.208;11.162;2024-02-28T10:23:59;58.90;;;23.95;;
43809;SDS011;29440;48.208;11.162;2024-02-28T10:26:24;63.67;;;25.70;;
43809;SDS011;29440;48.208;11.162;2024-02-28T10:28:50;59.08;;;23.33;;
43809;SDS011;29440;48.208;11.162;2024-02-28T10:31:16;57.55;;;22.40;;
43809;SDS011;29440;48.208;11.162;2024-02-28T10:33:42;57.50;;;22.75;;
43809;SDS011;29440;48.208;11.162;2024-02-28T10:36:08;56.28;;;22.95;;
43809;SDS011;29440;48.208;11.162;2024-02-28T10:38:34;57.55;;;22.02;;
43809;SDS011;29440;48.208;11.162;2024-02-28T10:41:01;56.40;;;23.27;;
43809;SDS011;29440;48.208;11.162;2024-02-28T10:43:28;56.78;;;21.70;;
43809;SDS011;29440;48.208;11.162;2024-02-28T10:45:56;57.05;;;22.77;;
43809;SDS011;29440;48.208;11.162;2024-02-28T10:48:22;58.03;;;21.73;;
43809;SDS011;29440;48.208;11.162;2024-02-28T10:50:49;59.08;;;22.65;;
43809;SDS011;29440;48.208;11.162;2024-02-28T10:53:16;66.00;;;25.35;;
43809;SDS011;29440;48.208;11.162;2024-02-28T10:55:48;55.78;;;22.02;;
43809;SDS011;29440;48.208;11.162;2024-02-28T10:58:14;58.47;;;22.98;;
43809;SDS011;29440;48.208;11.162;2024-02-28T11:00:42;53.95;;;22.52;;
43809;SDS011;29440;48.208;11.162;2024-02-28T11:03:12;61.78;;;23.30;;
43809;SDS011;29440;48.208;11.162;2024-02-28T11:05:42;59.40;;;23.45;;
43809;SDS011;29440;48.208;11.162;2024-02-28T11:08:11;58.22;;;22.20;;
43809;SDS011;29440;48.208;11.162;2024-02-28T11:10:47;52.03;;;21.35;;
43809;SDS011;29440;48.208;11.162;2024-02-28T11:13:22;54.42;;;21.65;;
43809;SDS011;29440;48.208;11.162;2024-02-28T11:15:49;50.47;;;21.00;;
43809;SDS011;29440;48.208;11.162;2024-02-28T11:18:14;46.75;;;19.73;;
43809;SDS011;29440;48.208;11.162;2024-02-28T11:20:40;46.70;;;19.15;;
43809;SDS011;29440;48.208;11.162;2024-02-28T11:23:06;44.00;;;18.52;;
43809;SDS011;29440;48.208;11.162;2024-02-28T11:25:33;45.42;;;19.70;;
43809;SDS011;29440;48.208;11.162;2024-02-28T11:27:59;50.95;;;20.42;;
43809;SDS011;29440;48.208;11.162;2024-02-28T11:30:25;50.83;;;20.63;;
43809;SDS011;29440;48.208;11.162;2024-02-28T11:32:54;47.40;;;20.42;;
43809;SDS011;29440;48.208;11.162;2024-02-28T11:35:20;45.17;;;21.33;;
43809;SDS011;29440;48.208;11.162;2024-02-28T11:37:46;46.65;;;20.23;;
43809;SDS011;29440;48.208;11.162;2024-02-28T11:40:12;48.10;;;20.70;;
43809;SDS011;29440;48.208;11.162;2024-02-28T11:42:39;42.33;;;19.10;;
43809;SDS011;29440;48.208;11.162;2024-02-28T11:45:04;46.28;;;19.45;;
43809;SDS011;29440;48.208;11.162;2024-02-28T11:47:34;42.03;;;18.65;;
43809;SDS011;29440;48.208;11.162;2024-02-28T11:50:00;42.40;;;19.77;;
43809;SDS011;29440;48.208;11.162;2024-02-28T11:52:27;44.95;;;19.85;;
43809;SDS011;29440;48.208;11.162;2024-02-28T11:54:55;41.08;;;18.15;;
43809;SDS011;29440;48.208;11.162;2024-02-28T11:57:21;43.13;;;18.75;;
43809;SDS011;29440;48.208;11.162;2024-02-28T11:59:47;43.92;;;19.38;;
43809;SDS011;29440;48.208;11.162;2024-02-28T12:02:14;43.42;;;19.55;;
43809;SDS011;29440;48.208;11.162;2024-02-28T12:04:44;41.60;;;18.42;;
43809;SDS011;29440;48.208;11.162;2024-02-28T12:07:10;37.60;;;18.52;;
43809;SDS011;29440;48.208;11.162;2024-02-28T12:09:36;43.70;;;19.17;;
43809;SDS011;29440;48.208;11.162;2024-02-28T12:12:03;40.03;;;17.55;;
43809;SDS011;29440;48.208;11.162;2024-02-28T12:14:37;45.58;;;21.48;;
43809;SDS011;29440;48.208;11.162;2024-02-28T12:17:07;44.08;;;19.08;;
43809;SDS011;29440;48.208;11.162;2024-02-28T12:19:34;40.22;;;19.02;;
43809;SDS011;29440;48.208;11.162;2024-02-28T12:22:00;40.20;;;18.52;;
43809;SDS011;29440;48.208;11.162;2024-02-28T12:24:26;40.75;;;18.90;;
43809;SDS011;29440;48.208;11.162;2024-02-28T12:26:51;46.53;;;22.27;;
43809;SDS011;29440;48.208;11.162;2024-02-28T12:29:17;45.75;;;20.00;;
43809;SDS011;29440;48.208;11.162;2024-02-28T12:31:43;40.47;;;18.35;;
43809;SDS011;29440;48.208;11.162;2024-02-28T12:34:08;37.08;;;16.80;;
43809;SDS011;29440;48.208;11.162;2024-02-28T12:36:34;40.85;;;17.95;;
43809;SDS011;29440;48.208;11.162;2024-02-28T12:39:00;38.60;;;17.25;;
43809;SDS011;29440;48.208;11.162;2024-02-28T12:41:28;39.88;;;18.33;;
43809;SDS011;29440;48.208;11.162;2024-02-28T12:43:54;38.63;;;17.58;;
43809;SDS011;29440;48.208;11.162;2024-02-28T12:46:20;41.83;;;18.00;;
43809;SDS011;29440;48.208;11.162;2024-02-28T12:48:45;38.67;;;18.80;;
43809;SDS011;29440;48.208;11.162;2024-02-28T12:51:20;41.05;;;17.98;;
43809;SDS011;29440;48.208;11.162;2024-02-28T12:54:08;45.95;;;19.33;;
43809;SDS011;29440;48.208;11.162;2024-02-28T12:56:34;41.05;;;18.15;;
43809;SDS011;29440;48.208;11.162;2024-02-28T12:59:04;39.53;;;18.60;;
43809;SDS011;29440;48.208;11.162;2024-02-28T13:01:32;47.13;;;19.98;;
43809;SDS011;29440;48.208;11.162;2024-02-28T13:03:57;52.05;;;21.10;;
43809;SDS011;29440;48.208;11.162;2024-02-28T13:06:23;44.40;;;18.83;;
43809;SDS011;29440;48.208;11.162;2024-02-28T13:08:49;40.65;;;18.67;;
43809;SDS011;29440;48.208;11.162;2024-02-28T13:11:18;46.85;;;20.05;;
43809;SDS011;29440;48.208;11.162;2024-02-28T13:13:45;44.90;;;19.92;;
43809;SDS011;29440;48.208;11.162;2024-02-28T13:16:11;43.97;;;18.85;;
43809;SDS011;29440;48.208;11.162;2024-02-28T13:18:37;43.78;;;19.00;;
43809;SDS011;29440;48.208;11.162;2024-02-28T13:21:03;45.00;;;19.63;;
43809;SDS011;29440;48.208;11.162;2024-02-28T13:23:29;41.72;;;18.70;;
43809;SDS011;29440;48.208;11.162;2024-02-28T13:25:56;40.47;;;18.63;;
43809;SDS011;29440;48.208;11.162;2024-02-28T13:28:22;41.97;;;17.52;;
43809;SDS011;29440;48.208;11.162;2024-02-28T13:30:54;39.63;;;17.50;;
43809;SDS011;29440;48.208;11.162;2024-02-28T13:33:23;39.53;;;17.95;;
43809;SDS011;29440;48.208;11.162;2024-02-28T13:35:49;40.10;;;17.73;;
43809;SDS011;29440;48.208;11.162;2024-02-28T13:38:15;41.20;;;17.52;;
43809;SDS011;29440;48.208;11.162;2024-02-28T13:40:40;43.58;;;18.38;;
43809;SDS011;29440;48.208;11.162;2024-02-28T13:43:09;41.88;;;18.23;;
43809;SDS011;29440;48.208;11.162;2024-02-28T13:45:35;43.83;;;18.50;;
43809;SDS011;29440;48.208;11.162;2024-02-28T13:48:02;47.22;;;19.67;;
43809;SDS011;29440;48.208;11.162;2024-02-28T13:50:28;41.15;;;19.30;;
43809;SDS011;29440;48.208;11.162;2024-02-28T13:52:57;42.83;;;18.50;;
43809;SDS011;29440;48.208;11.162;2024-02-28T13:55:23;42.30;;;19.27;;
43809;SDS011;29440;48.208;11.162;2024-02-28T13:57:48;41.08;;;19.52;;
43809;SDS011;29440;48.208;11.162;2024-02-28T14:00:14;40.10;;;19.23;;
43809;SDS011;29440;48.208;11.162;2024-02-28T14:02:40;45.63;;;19.50;;